createdAt,value
2017-10-30T00:03:59.289Z,100799
2017-10-30T00:09:03.244Z,100810
2017-10-30T00:14:06.420Z,100816
2017-10-30T00:19:09.634Z,100810
2017-10-30T00:24:12.810Z,100824
2017-10-30T00:29:16.150Z,100808
2017-10-30T00:34:19.366Z,100834
2017-10-30T00:39:22.556Z,100835
2017-10-30T00:44:26.510Z,100845
2017-10-30T00:49:30.665Z,100849
2017-10-30T00:54:33.851Z,100849
2017-10-30T00:59:37.045Z,100848
2017-10-30T01:04:40.421Z,100852
2017-10-30T01:09:43.783Z,100849
2017-10-30T01:14:46.941Z,100851
2017-10-30T01:19:50.868Z,100864
2017-10-30T01:24:54.818Z,100848
2017-10-30T01:29:58.119Z,100848
2017-10-30T01:35:01.365Z,100851
2017-10-30T01:40:04.543Z,100860
2017-10-30T01:45:07.722Z,100854
2017-10-30T01:50:11.639Z,100861
2017-10-30T01:55:15.607Z,100876
2017-10-30T02:00:18.768Z,100875
2017-10-30T02:05:21.974Z,100854
2017-10-30T02:10:25.911Z,100868
2017-10-30T02:15:29.089Z,100864
2017-10-30T02:20:32.250Z,100768
2017-10-30T02:25:35.509Z,100859
2017-10-30T02:30:39.447Z,100867
2017-10-30T02:35:43.383Z,100875
2017-10-30T02:40:46.621Z,100875
2017-10-30T02:45:49.988Z,100878
2017-10-30T02:50:53.161Z,100873
2017-10-30T02:55:56.335Z,100886
2017-10-30T03:00:59.490Z,100888
2017-10-30T03:06:02.634Z,100903
2017-10-30T03:11:05.810Z,100901
2017-10-30T03:16:09.752Z,100908
2017-10-30T03:21:12.925Z,100912
2017-10-30T03:26:16.886Z,100904
2017-10-30T03:31:20.063Z,100918
2017-10-30T03:36:24.008Z,100929
2017-10-30T03:41:27.285Z,100930
2017-10-30T03:46:31.250Z,100939
2017-10-30T03:51:34.427Z,100950
2017-10-30T03:56:38.400Z,100962
2017-10-30T04:01:41.570Z,100966
2017-10-30T04:06:44.752Z,100972
2017-10-30T04:11:48.698Z,100987
2017-10-30T04:16:51.872Z,100981
2017-10-30T04:21:55.042Z,101004
2017-10-30T04:26:58.221Z,100991
2017-10-30T04:32:01.421Z,100997
2017-10-30T04:37:04.600Z,100997
2017-10-30T04:42:07.794Z,100989
2017-10-30T04:47:10.969Z,100994
2017-10-30T04:52:14.164Z,100999
2017-10-30T04:57:17.329Z,101001
2017-10-30T05:02:21.285Z,101018
2017-10-30T05:07:24.481Z,101003
2017-10-30T05:12:27.663Z,101015
2017-10-30T05:17:31.644Z,101020
2017-10-30T05:22:34.829Z,101019
2017-10-30T05:27:38.007Z,101030
2017-10-30T05:32:41.950Z,101031
2017-10-30T05:37:45.151Z,101044
2017-10-30T05:42:48.355Z,101032
2017-10-30T05:47:51.528Z,101039
2017-10-30T05:52:54.732Z,101042
2017-10-30T05:57:57.896Z,101044
2017-10-30T06:03:01.092Z,101046
2017-10-30T06:08:04.337Z,101058
2017-10-30T06:13:07.527Z,101062
2017-10-30T06:18:10.798Z,101067
2017-10-30T06:23:14.041Z,101065
2017-10-30T06:28:17.236Z,101065
2017-10-30T06:33:20.436Z,101078
2017-10-30T06:38:23.636Z,101089
2017-10-30T06:43:26.793Z,101094
2017-10-30T06:48:30.073Z,101109
2017-10-30T06:53:33.254Z,101109
2017-10-30T06:58:36.605Z,101112
2017-10-30T07:03:39.953Z,101112
2017-10-30T07:08:43.909Z,101121
2017-10-30T07:13:47.124Z,101128
2017-10-30T07:18:50.333Z,101138
2017-10-30T07:23:53.495Z,101147
2017-10-30T07:28:57.446Z,101143
2017-10-30T07:34:00.668Z,101145
2017-10-30T07:39:03.849Z,101148
2017-10-30T07:44:07.108Z,101167
2017-10-30T07:49:10.300Z,101154
2017-10-30T07:54:13.510Z,101151
2017-10-30T07:59:16.761Z,101161
2017-10-30T08:04:20.698Z,101167
2017-10-30T08:09:24.058Z,101177
2017-10-30T08:14:27.233Z,101176
2017-10-30T08:19:30.441Z,101171
2017-10-30T08:24:33.624Z,101179
2017-10-30T08:29:36.805Z,101178
2017-10-30T08:34:40.746Z,101183
2017-10-30T08:39:44.725Z,101189
2017-10-30T08:44:47.984Z,101187
2017-10-30T08:49:51.918Z,101192
2017-10-30T08:54:55.085Z,101206
2017-10-30T08:59:59.584Z,101214
2017-10-30T09:05:02.764Z,101227
2017-10-30T09:10:05.929Z,101248
2017-10-30T09:15:09.168Z,101253
2017-10-30T09:20:12.404Z,101256
2017-10-30T09:25:15.669Z,101261
2017-10-30T09:30:19.734Z,101254
2017-10-30T09:35:22.895Z,101247
2017-10-30T09:40:26.879Z,101249
2017-10-30T09:45:30.038Z,101256
2017-10-30T09:50:33.205Z,101254
2017-10-30T09:55:36.371Z,101258
2017-10-30T10:00:39.583Z,101250
2017-10-30T10:05:42.756Z,101258
2017-10-30T10:10:46.765Z,101269
2017-10-30T10:15:50.103Z,101265
2017-10-30T10:20:53.299Z,101270
2017-10-30T10:25:56.665Z,101279
2017-10-30T10:30:59.864Z,101269
2017-10-30T10:36:03.049Z,101273
2017-10-30T10:41:06.325Z,101268
2017-10-30T10:46:10.266Z,101267
2017-10-30T10:51:13.463Z,101271
2017-10-30T10:56:17.401Z,101269
2017-10-30T11:01:20.575Z,101255
2017-10-30T11:06:24.503Z,101274
2017-10-30T11:11:28.470Z,101268
2017-10-30T11:16:31.674Z,101261
2017-10-30T11:21:34.915Z,101272
2017-10-30T11:26:38.113Z,101258
2017-10-30T11:31:41.302Z,101266
2017-10-30T11:36:44.623Z,101264
2017-10-30T11:41:47.797Z,101268
2017-10-30T11:46:50.990Z,101259
2017-10-30T11:51:54.949Z,101274
2017-10-30T11:56:58.287Z,101280
2017-10-30T12:02:01.487Z,101278
2017-10-30T12:07:04.723Z,101285
2017-10-30T12:12:07.962Z,101295
2017-10-30T12:17:11.242Z,101283
2017-10-30T12:22:15.198Z,101303
2017-10-30T12:27:18.404Z,101296
2017-10-30T12:32:21.736Z,101307
2017-10-30T12:37:24.946Z,101314
2017-10-30T12:42:28.140Z,101302
2017-10-30T12:47:31.360Z,101306
2017-10-30T12:52:34.570Z,101320
2017-10-30T12:57:37.846Z,101317
2017-10-30T13:02:41.034Z,101324
2017-10-30T13:07:44.353Z,101315
2017-10-30T13:12:47.570Z,101319
2017-10-30T13:17:50.783Z,101322
2017-10-30T13:22:54.002Z,101319
2017-10-30T13:27:57.220Z,101324
2017-10-30T13:33:00.402Z,101325
2017-10-30T13:38:03.590Z,101326
2017-10-30T13:43:06.784Z,101327
2017-10-30T13:48:10.036Z,101325
2017-10-30T13:53:13.585Z,101336
2017-10-30T13:58:17.017Z,101340
2017-10-30T14:03:20.460Z,101343
2017-10-30T14:08:23.784Z,101347
2017-10-30T14:13:27.003Z,101337
2017-10-30T14:18:30.355Z,101350
2017-10-30T14:23:33.617Z,101356
2017-10-30T14:28:36.894Z,101360
2017-10-30T14:33:40.126Z,101362
2017-10-30T14:38:43.330Z,101359
2017-10-30T14:43:46.764Z,101341
2017-10-30T14:48:49.922Z,101348
2017-10-30T14:53:53.213Z,101363
2017-10-30T14:58:56.422Z,101371
2017-10-30T15:03:59.680Z,101373
2017-10-30T15:09:02.875Z,101372
2017-10-30T15:14:06.128Z,101374
2017-10-30T15:19:10.093Z,101375
2017-10-30T15:24:13.271Z,101379
2017-10-30T15:29:16.630Z,101380
2017-10-30T15:34:19.809Z,101389
2017-10-30T15:39:22.997Z,101389
2017-10-30T15:44:26.202Z,101391
2017-10-30T15:49:29.390Z,101396
2017-10-30T15:54:32.697Z,101401
2017-10-30T15:59:36.653Z,101398
2017-10-30T16:04:39.890Z,101411
2017-10-30T16:09:43.161Z,101407
2017-10-30T16:14:46.513Z,101422
2017-10-30T16:19:49.762Z,101427
2017-10-30T16:24:53.154Z,101432
2017-10-30T16:29:56.529Z,101433
2017-10-30T16:34:59.744Z,101433
2017-10-30T16:40:03.076Z,101439
2017-10-30T16:45:07.141Z,101443
2017-10-30T16:50:10.389Z,101451
2017-10-30T16:55:13.585Z,101455
2017-10-30T17:00:16.769Z,101457
2017-10-30T17:05:20.051Z,101457
2017-10-30T17:10:24.019Z,101452
2017-10-30T17:15:27.416Z,101460
2017-10-30T17:20:31.420Z,101461
2017-10-30T17:25:34.829Z,101467
2017-10-30T17:30:39.602Z,101463
2017-10-30T17:35:42.802Z,101469
2017-10-30T17:41:12.165Z,101474
2017-10-30T17:46:15.367Z,101480
2017-10-30T17:51:18.563Z,101483
2017-10-30T17:56:21.778Z,101484
2017-10-30T18:01:24.975Z,101485
2017-10-30T18:06:28.189Z,101481
2017-10-30T18:11:31.362Z,101484
2017-10-30T18:16:34.560Z,101491
2017-10-30T18:21:37.772Z,101487
2017-10-30T18:26:40.968Z,101486
2017-10-30T18:31:44.188Z,101486
2017-10-30T18:36:47.386Z,101499
2017-10-30T18:41:50.588Z,101500
2017-10-30T18:46:53.802Z,101502
2017-10-30T18:51:56.979Z,101497
2017-10-30T18:57:00.146Z,101506
2017-10-30T19:02:03.297Z,101505
2017-10-30T19:07:06.501Z,101497
2017-10-30T19:12:09.690Z,101494
2017-10-30T19:17:12.893Z,101491
2017-10-30T19:22:16.125Z,101496
2017-10-30T19:27:19.324Z,101504
2017-10-30T19:32:22.547Z,101500
2017-10-30T19:37:25.747Z,101493
2017-10-30T19:42:28.996Z,101502
2017-10-30T19:47:32.971Z,101504
2017-10-30T19:52:36.187Z,101500
2017-10-30T19:57:39.365Z,101504
2017-10-30T20:02:42.579Z,101509
2017-10-30T20:07:51.310Z,101495
2017-10-30T20:12:54.521Z,101498
2017-10-30T20:17:57.759Z,101505
2017-10-30T20:23:00.988Z,101509
2017-10-30T20:28:04.203Z,101520
2017-10-30T20:33:08.170Z,101521
2017-10-30T20:38:11.407Z,101522
2017-10-30T20:43:14.623Z,101525
2017-10-30T20:48:17.835Z,101528
2017-10-30T20:53:21.824Z,101529
2017-10-30T20:58:25.060Z,101533
2017-10-30T21:03:28.276Z,101543
2017-10-30T21:08:31.476Z,101539
2017-10-30T21:13:34.692Z,101527
2017-10-30T21:18:37.877Z,101535
2017-10-30T21:23:41.107Z,101541
2017-10-30T21:28:45.112Z,101539
2017-10-30T21:33:48.289Z,101538
2017-10-30T21:38:51.483Z,101543
2017-10-30T21:43:54.771Z,101551
2017-10-30T21:48:58.020Z,101543
2017-10-30T21:54:01.214Z,101538
2017-10-30T21:59:04.384Z,101543
2017-10-30T22:04:08.426Z,101545
2017-10-30T22:09:11.631Z,101550
2017-10-30T22:14:15.604Z,101542
2017-10-30T22:19:18.787Z,101543
2017-10-30T22:24:21.997Z,101549
2017-10-30T22:29:25.187Z,101545
2017-10-30T22:34:28.373Z,101547
2017-10-30T22:39:32.331Z,101548
2017-10-30T22:44:35.555Z,101542
2017-10-30T22:49:39.426Z,101546
2017-10-30T22:54:42.655Z,101545
2017-10-30T22:59:46.215Z,101544
2017-10-30T23:04:49.569Z,101542
2017-10-30T23:09:52.777Z,101547
2017-10-30T23:14:55.980Z,101547
2017-10-30T23:19:59.198Z,101544
2017-10-30T23:25:02.406Z,101549
2017-10-30T23:30:05.597Z,101538
2017-10-30T23:35:08.923Z,101530
2017-10-30T23:40:12.109Z,101536
2017-10-30T23:45:15.309Z,101528
2017-10-30T23:50:18.491Z,101531
2017-10-30T23:55:21.706Z,101531
